sensor_id;sensor_type;location;lat;lon;timestamp;P1;durP1;ratioP1;P2;durP2;ratioP2
39620;SDS011;25309;48.686;9.170;2023-01-04T00:00:04;8.87;;;6.00;;
39620;SDS011;25309;48.686;9.170;2023-01-04T00:02:31;9.07;;;6.47;;
39620;SDS011;25309;48.686;9.170;2023-01-04T00:04:58;9.20;;;6.07;;
39620;SDS011;25309;48.686;9.170;2023-01-04T00:07:27;8.47;;;6.47;;
39620;SDS011;25309;48.686;9.170;2023-01-04T00:09:54;9.00;;;6.20;;
39620;SDS011;25309;48.686;9.170;2023-01-04T00:12:22;8.27;;;6.33;;
39620;SDS011;25309;48.686;9.170;2023-01-04T00:14:49;7.70;;;6.17;;
39620;SDS011;25309;48.686;9.170;2023-01-04T00:17:17;7.67;;;5.87;;
39620;SDS011;25309;48.686;9.170;2023-01-04T00:19:44;9.00;;;6.00;;
39620;SDS011;25309;48.686;9.170;2023-01-04T00:22:11;9.20;;;6.53;;
39620;SDS011;25309;48.686;9.170;2023-01-04T00:24:38;8.57;;;6.17;;
39620;SDS011;25309;48.686;9.170;2023-01-04T00:27:04;7.93;;;5.83;;
39620;SDS011;25309;48.686;9.170;2023-01-04T00:29:31;7.50;;;5.93;;
39620;SDS011;25309;48.686;9.170;2023-01-04T00:31:58;8.43;;;6.47;;
39620;SDS011;25309;48.686;9.170;2023-01-04T00:34:26;9.13;;;6.07;;
39620;SDS011;25309;48.686;9.170;2023-01-04T00:36:53;8.93;;;6.13;;
39620;SDS011;25309;48.686;9.170;2023-01-04T00:39:20;7.93;;;6.30;;
39620;SDS011;25309;48.686;9.170;2023-01-04T00:41:47;8.97;;;6.10;;
39620;SDS011;25309;48.686;9.170;2023-01-04T00:44:26;7.70;;;6.37;;
39620;SDS011;25309;48.686;9.170;2023-01-04T00:46:53;8.30;;;6.33;;
39620;SDS011;25309;48.686;9.170;2023-01-04T00:49:20;9.27;;;6.60;;
39620;SDS011;25309;48.686;9.170;2023-01-04T00:51:48;9.13;;;6.77;;
39620;SDS011;25309;48.686;9.170;2023-01-04T00:54:15;9.57;;;6.67;;
39620;SDS011;25309;48.686;9.170;2023-01-04T00:56:43;10.20;;;6.87;;
39620;SDS011;25309;48.686;9.170;2023-01-04T00:59:11;9.50;;;6.20;;
39620;SDS011;25309;48.686;9.170;2023-01-04T01:01:39;7.93;;;6.50;;
39620;SDS011;25309;48.686;9.170;2023-01-04T01:04:09;8.80;;;6.20;;
39620;SDS011;25309;48.686;9.170;2023-01-04T01:06:38;7.43;;;5.40;;
39620;SDS011;25309;48.686;9.170;2023-01-04T01:09:07;7.53;;;6.07;;
39620;SDS011;25309;48.686;9.170;2023-01-04T01:11:34;10.57;;;6.73;;
39620;SDS011;25309;48.686;9.170;2023-01-04T01:14:03;9.13;;;6.47;;
39620;SDS011;25309;48.686;9.170;2023-01-04T01:16:31;9.70;;;6.50;;
39620;SDS011;25309;48.686;9.170;2023-01-04T01:19:18;8.97;;;6.37;;
39620;SDS011;25309;48.686;9.170;2023-01-04T01:21:45;9.23;;;6.80;;
39620;SDS011;25309;48.686;9.170;2023-01-04T01:24:14;9.20;;;6.63;;
39620;SDS011;25309;48.686;9.170;2023-01-04T01:26:42;8.63;;;6.83;;
39620;SDS011;25309;48.686;9.170;2023-01-04T01:29:09;10.63;;;6.97;;
39620;SDS011;25309;48.686;9.170;2023-01-04T01:31:37;10.53;;;6.90;;
39620;SDS011;25309;48.686;9.170;2023-01-04T01:34:05;9.07;;;6.73;;
39620;SDS011;25309;48.686;9.170;2023-01-04T01:36:32;9.17;;;6.77;;
39620;SDS011;25309;48.686;9.170;2023-01-04T01:38:59;9.23;;;6.67;;
39620;SDS011;25309;48.686;9.170;2023-01-04T01:41:28;9.20;;;6.57;;
39620;SDS011;25309;48.686;9.170;2023-01-04T01:43:57;9.30;;;6.23;;
39620;SDS011;25309;48.686;9.170;2023-01-04T01:46:25;10.53;;;7.43;;
39620;SDS011;25309;48.686;9.170;2023-01-04T01:48:56;10.03;;;6.50;;
39620;SDS011;25309;48.686;9.170;2023-01-04T01:51:27;9.00;;;6.33;;
39620;SDS011;25309;48.686;9.170;2023-01-04T01:53:56;8.97;;;6.27;;
39620;SDS011;25309;48.686;9.170;2023-01-04T01:56:30;11.27;;;6.50;;
39620;SDS011;25309;48.686;9.170;2023-01-04T01:59:01;7.47;;;5.67;;
39620;SDS011;25309;48.686;9.170;2023-01-04T02:01:28;8.23;;;5.80;;
39620;SDS011;25309;48.686;9.170;2023-01-04T02:03:55;8.47;;;5.83;;
39620;SDS011;25309;48.686;9.170;2023-01-04T02:06:24;8.70;;;5.80;;
39620;SDS011;25309;48.686;9.170;2023-01-04T02:08:54;7.87;;;5.43;;
39620;SDS011;25309;48.686;9.170;2023-01-04T02:11:21;7.43;;;4.87;;
39620;SDS011;25309;48.686;9.170;2023-01-04T02:13:49;7.37;;;5.10;;
39620;SDS011;25309;48.686;9.170;2023-01-04T02:16:39;8.30;;;5.33;;
39620;SDS011;25309;48.686;9.170;2023-01-04T02:19:27;6.87;;;4.97;;
39620;SDS011;25309;48.686;9.170;2023-01-04T02:22:24;7.27;;;5.07;;
39620;SDS011;25309;48.686;9.170;2023-01-04T02:25:36;6.60;;;4.73;;
39620;SDS011;25309;48.686;9.170;2023-01-04T02:28:37;7.43;;;5.37;;
39620;SDS011;25309;48.686;9.170;2023-01-04T02:31:28;7.77;;;4.87;;
39620;SDS011;25309;48.686;9.170;2023-01-04T02:34:02;7.70;;;5.03;;
39620;SDS011;25309;48.686;9.170;2023-01-04T02:36:36;7.47;;;5.07;;
39620;SDS011;25309;48.686;9.170;2023-01-04T02:39:12;7.47;;;4.90;;
39620;SDS011;25309;48.686;9.170;2023-01-04T02:41:50;6.50;;;4.80;;
39620;SDS011;25309;48.686;9.170;2023-01-04T02:44:23;7.57;;;5.30;;
39620;SDS011;25309;48.686;9.170;2023-01-04T02:47:15;7.13;;;5.07;;
39620;SDS011;25309;48.686;9.170;2023-01-04T02:50:10;7.23;;;5.13;;
39620;SDS011;25309;48.686;9.170;2023-01-04T02:52:57;7.20;;;5.10;;
39620;SDS011;25309;48.686;9.170;2023-01-04T02:55:28;7.87;;;5.10;;
39620;SDS011;25309;48.686;9.170;2023-01-04T02:58:05;7.53;;;5.30;;
39620;SDS011;25309;48.686;9.170;2023-01-04T03:00:40;6.80;;;5.00;;
39620;SDS011;25309;48.686;9.170;2023-01-04T03:03:40;8.23;;;5.00;;
39620;SDS011;25309;48.686;9.170;2023-01-04T03:06:39;7.17;;;4.80;;
39620;SDS011;25309;48.686;9.170;2023-01-04T03:09:12;7.00;;;4.70;;
39620;SDS011;25309;48.686;9.170;2023-01-04T03:11:44;7.03;;;4.70;;
39620;SDS011;25309;48.686;9.170;2023-01-04T03:14:33;7.27;;;4.57;;
39620;SDS011;25309;48.686;9.170;2023-01-04T03:17:06;8.00;;;4.90;;
39620;SDS011;25309;48.686;9.170;2023-01-04T03:19:39;7.03;;;4.60;;
39620;SDS011;25309;48.686;9.170;2023-01-04T03:22:26;7.23;;;4.80;;
39620;SDS011;25309;48.686;9.170;2023-01-04T03:25:18;6.93;;;4.60;;
39620;SDS011;25309;48.686;9.170;2023-01-04T03:28:07;7.57;;;4.03;;
39620;SDS011;25309;48.686;9.170;2023-01-04T03:30:57;8.50;;;4.40;;
39620;SDS011;25309;48.686;9.170;2023-01-04T03:33:48;6.30;;;4.17;;
39620;SDS011;25309;48.686;9.170;2023-01-04T03:36:39;7.13;;;4.70;;
39620;SDS011;25309;48.686;9.170;2023-01-04T03:39:19;5.93;;;4.03;;
39620;SDS011;25309;48.686;9.170;2023-01-04T03:42:13;5.90;;;3.97;;
39620;SDS011;25309;48.686;9.170;2023-01-04T03:45:07;6.13;;;4.10;;
39620;SDS011;25309;48.686;9.170;2023-01-04T03:48:02;7.17;;;4.00;;
39620;SDS011;25309;48.686;9.170;2023-01-04T03:50:55;5.57;;;3.97;;
39620;SDS011;25309;48.686;9.170;2023-01-04T03:53:29;7.50;;;4.60;;
39620;SDS011;25309;48.686;9.170;2023-01-04T03:55:58;5.77;;;3.80;;
39620;SDS011;25309;48.686;9.170;2023-01-04T03:58:25;6.33;;;3.60;;
39620;SDS011;25309;48.686;9.170;2023-01-04T04:00:52;5.23;;;3.43;;
39620;SDS011;25309;48.686;9.170;2023-01-04T04:03:28;4.80;;;3.20;;
39620;SDS011;25309;48.686;9.170;2023-01-04T04:06:14;5.50;;;3.17;;
39620;SDS011;25309;48.686;9.170;2023-01-04T04:09:02;4.43;;;2.73;;
39620;SDS011;25309;48.686;9.170;2023-01-04T04:11:29;4.63;;;3.03;;
39620;SDS011;25309;48.686;9.170;2023-01-04T04:13:56;4.33;;;2.87;;
39620;SDS011;25309;48.686;9.170;2023-01-04T04:16:24;4.27;;;2.87;;
39620;SDS011;25309;48.686;9.170;2023-01-04T04:18:52;4.87;;;2.90;;
39620;SDS011;25309;48.686;9.170;2023-01-04T04:21:19;4.53;;;2.70;;
39620;SDS011;25309;48.686;9.170;2023-01-04T04:23:46;4.40;;;2.80;;
39620;SDS011;25309;48.686;9.170;2023-01-04T04:26:14;4.27;;;2.67;;
39620;SDS011;25309;48.686;9.170;2023-01-04T04:28:42;4.50;;;2.80;;
39620;SDS011;25309;48.686;9.170;2023-01-04T04:31:08;3.70;;;2.40;;
39620;SDS011;25309;48.686;9.170;2023-01-04T04:33:35;3.87;;;2.60;;
39620;SDS011;25309;48.686;9.170;2023-01-04T04:36:03;3.27;;;2.50;;
39620;SDS011;25309;48.686;9.170;2023-01-04T04:38:30;4.10;;;2.83;;
39620;SDS011;25309;48.686;9.170;2023-01-04T04:40:57;4.97;;;2.67;;
39620;SDS011;25309;48.686;9.170;2023-01-04T04:43:44;3.90;;;2.73;;
39620;SDS011;25309;48.686;9.170;2023-01-04T04:46:10;3.50;;;2.20;;
39620;SDS011;25309;48.686;9.170;2023-01-04T04:48:38;5.57;;;2.87;;
39620;SDS011;25309;48.686;9.170;2023-01-04T04:51:05;3.93;;;2.37;;
39620;SDS011;25309;48.686;9.170;2023-01-04T04:53:31;3.70;;;2.40;;
39620;SDS011;25309;48.686;9.170;2023-01-04T04:55:58;3.87;;;2.53;;
39620;SDS011;25309;48.686;9.170;2023-01-04T04:58:25;3.10;;;2.27;;
39620;SDS011;25309;48.686;9.170;2023-01-04T05:00:53;5.63;;;2.70;;
39620;SDS011;25309;48.686;9.170;2023-01-04T05:03:20;3.57;;;2.37;;
39620;SDS011;25309;48.686;9.170;2023-01-04T05:05:47;3.30;;;2.40;;
39620;SDS011;25309;48.686;9.170;2023-01-04T05:08:14;4.00;;;2.40;;
39620;SDS011;25309;48.686;9.170;2023-01-04T05:10:41;3.60;;;2.37;;
39620;SDS011;25309;48.686;9.170;2023-01-04T05:13:08;4.30;;;2.70;;
39620;SDS011;25309;48.686;9.170;2023-01-04T05:15:38;3.70;;;2.50;;
39620;SDS011;25309;48.686;9.170;2023-01-04T05:18:09;4.70;;;2.57;;
39620;SDS011;25309;48.686;9.170;2023-01-04T05:20:37;3.43;;;2.10;;
39620;SDS011;25309;48.686;9.170;2023-01-04T05:23:05;3.67;;;2.47;;
39620;SDS011;25309;48.686;9.170;2023-01-04T05:25:32;4.13;;;2.43;;
39620;SDS011;25309;48.686;9.170;2023-01-04T05:28:00;3.60;;;2.50;;
39620;SDS011;25309;48.686;9.170;2023-01-04T05:30:26;3.50;;;2.20;;
39620;SDS011;25309;48.686;9.170;2023-01-04T05:33:13;3.33;;;2.27;;
39620;SDS011;25309;48.686;9.170;2023-01-04T05:35:40;3.43;;;2.43;;
39620;SDS011;25309;48.686;9.170;2023-01-04T05:38:07;3.40;;;2.00;;
39620;SDS011;25309;48.686;9.170;2023-01-04T05:40:34;3.13;;;2.40;;
39620;SDS011;25309;48.686;9.170;2023-01-04T05:43:01;3.77;;;2.53;;
39620;SDS011;25309;48.686;9.170;2023-01-04T05:45:28;3.80;;;2.57;;
39620;SDS011;25309;48.686;9.170;2023-01-04T05:47:55;3.47;;;2.50;;
39620;SDS011;25309;48.686;9.170;2023-01-04T05:50:23;4.30;;;2.50;;
39620;SDS011;25309;48.686;9.170;2023-01-04T05:52:50;3.43;;;2.60;;
39620;SDS011;25309;48.686;9.170;2023-01-04T05:55:17;3.50;;;2.03;;
39620;SDS011;25309;48.686;9.170;2023-01-04T05:57:44;4.53;;;2.77;;
39620;SDS011;25309;48.686;9.170;2023-01-04T06:00:11;3.77;;;2.33;;
39620;SDS011;25309;48.686;9.170;2023-01-04T06:02:40;4.03;;;2.60;;
39620;SDS011;25309;48.686;9.170;2023-01-04T06:05:08;4.90;;;2.67;;
39620;SDS011;25309;48.686;9.170;2023-01-04T06:07:37;4.00;;;2.77;;
39620;SDS011;25309;48.686;9.170;2023-01-04T06:10:05;2.93;;;2.20;;
39620;SDS011;25309;48.686;9.170;2023-01-04T06:12:33;3.40;;;2.10;;
39620;SDS011;25309;48.686;9.170;2023-01-04T06:15:00;4.27;;;2.53;;
39620;SDS011;25309;48.686;9.170;2023-01-04T06:17:28;3.50;;;2.30;;
39620;SDS011;25309;48.686;9.170;2023-01-04T06:19:55;4.90;;;2.13;;
39620;SDS011;25309;48.686;9.170;2023-01-04T06:22:22;3.70;;;2.50;;
39620;SDS011;25309;48.686;9.170;2023-01-04T06:24:50;4.13;;;2.40;;
39620;SDS011;25309;48.686;9.170;2023-01-04T06:27:17;3.50;;;2.30;;
39620;SDS011;25309;48.686;9.170;2023-01-04T06:29:44;5.47;;;2.70;;
39620;SDS011;25309;48.686;9.170;2023-01-04T06:32:11;5.07;;;2.63;;
39620;SDS011;25309;48.686;9.170;2023-01-04T06:34:38;3.60;;;2.30;;
39620;SDS011;25309;48.686;9.170;2023-01-04T06:37:05;3.77;;;2.47;;
39620;SDS011;25309;48.686;9.170;2023-01-04T06:39:32;4.20;;;2.70;;
39620;SDS011;25309;48.686;9.170;2023-01-04T06:42:00;3.67;;;2.20;;
39620;SDS011;25309;48.686;9.170;2023-01-04T06:44:32;3.37;;;2.30;;
39620;SDS011;25309;48.686;9.170;2023-01-04T06:46:59;3.23;;;2.20;;
39620;SDS011;25309;48.686;9.170;2023-01-04T06:49:26;3.40;;;2.17;;
39620;SDS011;25309;48.686;9.170;2023-01-04T06:51:53;2.93;;;1.90;;
39620;SDS011;25309;48.686;9.170;2023-01-04T06:54:20;3.20;;;2.03;;
39620;SDS011;25309;48.686;9.170;2023-01-04T06:56:46;3.83;;;2.07;;
39620;SDS011;25309;48.686;9.170;2023-01-04T06:59:15;3.27;;;1.93;;
39620;SDS011;25309;48.686;9.170;2023-01-04T07:01:41;3.17;;;2.30;;
39620;SDS011;25309;48.686;9.170;2023-01-04T07:04:09;2.30;;;1.90;;
39620;SDS011;25309;48.686;9.170;2023-01-04T07:06:36;4.03;;;1.83;;
39620;SDS011;25309;48.686;9.170;2023-01-04T07:09:02;3.23;;;1.90;;
39620;SDS011;25309;48.686;9.170;2023-01-04T07:11:29;2.87;;;1.90;;
39620;SDS011;25309;48.686;9.170;2023-01-04T07:13:56;2.63;;;1.90;;
39620;SDS011;25309;48.686;9.170;2023-01-04T07:16:24;2.77;;;1.90;;
39620;SDS011;25309;48.686;9.170;2023-01-04T07:18:51;2.47;;;1.67;;
39620;SDS011;25309;48.686;9.170;2023-01-04T07:21:18;3.13;;;1.60;;
39620;SDS011;25309;48.686;9.170;2023-01-04T07:23:45;2.53;;;1.80;;
39620;SDS011;25309;48.686;9.170;2023-01-04T07:26:12;2.03;;;1.33;;
39620;SDS011;25309;48.686;9.170;2023-01-04T07:28:39;1.97;;;1.40;;
39620;SDS011;25309;48.686;9.170;2023-01-04T07:31:31;2.70;;;1.63;;
39620;SDS011;25309;48.686;9.170;2023-01-04T07:33:58;3.67;;;2.07;;
39620;SDS011;25309;48.686;9.170;2023-01-04T07:36:24;6.70;;;3.53;;
39620;SDS011;25309;48.686;9.170;2023-01-04T07:38:51;7.67;;;2.90;;
39620;SDS011;25309;48.686;9.170;2023-01-04T07:41:18;8.57;;;2.63;;
39620;SDS011;25309;48.686;9.170;2023-01-04T07:43:45;6.83;;;2.43;;
39620;SDS011;25309;48.686;9.170;2023-01-04T07:46:12;7.53;;;2.50;;
39620;SDS011;25309;48.686;9.170;2023-01-04T07:48:40;6.73;;;2.80;;
39620;SDS011;25309;48.686;9.170;2023-01-04T07:51:07;7.63;;;2.60;;
39620;SDS011;25309;48.686;9.170;2023-01-04T07:53:34;7.10;;;3.07;;
39620;SDS011;25309;48.686;9.170;2023-01-04T07:56:01;7.67;;;3.13;;
39620;SDS011;25309;48.686;9.170;2023-01-04T07:58:29;8.37;;;3.23;;
39620;SDS011;25309;48.686;9.170;2023-01-04T08:01:04;9.03;;;3.30;;
39620;SDS011;25309;48.686;9.170;2023-01-04T08:03:31;9.63;;;3.40;;
39620;SDS011;25309;48.686;9.170;2023-01-04T08:06:02;7.47;;;3.23;;
39620;SDS011;25309;48.686;9.170;2023-01-04T08:08:30;7.23;;;3.00;;
39620;SDS011;25309;48.686;9.170;2023-01-04T08:10:59;9.63;;;3.63;;
39620;SDS011;25309;48.686;9.170;2023-01-04T08:13:26;9.43;;;3.60;;
39620;SDS011;25309;48.686;9.170;2023-01-04T08:15:53;8.73;;;3.83;;
39620;SDS011;25309;48.686;9.170;2023-01-04T08:18:21;9.37;;;3.87;;
39620;SDS011;25309;48.686;9.170;2023-01-04T08:20:48;11.80;;;4.03;;
39620;SDS011;25309;48.686;9.170;2023-01-04T08:23:25;9.93;;;4.67;;
39620;SDS011;25309;48.686;9.170;2023-01-04T08:25:52;12.37;;;3.90;;
39620;SDS011;25309;48.686;9.170;2023-01-04T08:28:19;13.40;;;4.80;;
39620;SDS011;25309;48.686;9.170;2023-01-04T08:30:46;11.90;;;3.90;;
39620;SDS011;25309;48.686;9.170;2023-01-04T08:33:14;11.50;;;4.80;;
39620;SDS011;25309;48.686;9.170;2023-01-04T08:35:41;8.83;;;3.80;;
39620;SDS011;25309;48.686;9.170;2023-01-04T08:38:08;8.20;;;3.57;;
39620;SDS011;25309;48.686;9.170;2023-01-04T08:40:57;6.63;;;3.10;;
39620;SDS011;25309;48.686;9.170;2023-01-04T08:43:44;11.03;;;3.80;;
39620;SDS011;25309;48.686;9.170;2023-01-04T08:46:12;7.63;;;3.10;;
39620;SDS011;25309;48.686;9.170;2023-01-04T08:48:40;6.90;;;2.70;;
39620;SDS011;25309;48.686;9.170;2023-01-04T08:51:09;7.23;;;2.83;;
39620;SDS011;25309;48.686;9.170;2023-01-04T08:53:38;7.73;;;3.33;;
39620;SDS011;25309;48.686;9.170;2023-01-04T08:56:07;8.07;;;2.80;;
39620;SDS011;25309;48.686;9.170;2023-01-04T08:58:35;4.93;;;2.30;;
39620;SDS011;25309;48.686;9.170;2023-01-04T09:01:05;4.33;;;2.07;;
39620;SDS011;25309;48.686;9.170;2023-01-04T09:03:34;5.47;;;2.20;;
39620;SDS011;25309;48.686;9.170;2023-01-04T09:06:03;4.67;;;2.00;;
39620;SDS011;25309;48.686;9.170;2023-01-04T09:08:31;4.77;;;1.90;;
39620;SDS011;25309;48.686;9.170;2023-01-04T09:11:02;4.17;;;1.93;;
39620;SDS011;25309;48.686;9.170;2023-01-04T09:13:31;4.07;;;1.80;;
39620;SDS011;25309;48.686;9.170;2023-01-04T09:15:59;4.43;;;1.70;;
39620;SDS011;25309;48.686;9.170;2023-01-04T09:18:27;4.07;;;1.90;;
39620;SDS011;25309;48.686;9.170;2023-01-04T09:20:57;5.03;;;1.80;;
39620;SDS011;25309;48.686;9.170;2023-01-04T09:23:25;4.63;;;2.03;;
39620;SDS011;25309;48.686;9.170;2023-01-04T09:25:54;5.33;;;2.03;;
39620;SDS011;25309;48.686;9.170;2023-01-04T09:28:21;3.37;;;1.40;;
39620;SDS011;25309;48.686;9.170;2023-01-04T09:30:49;4.77;;;1.93;;
39620;SDS011;25309;48.686;9.170;2023-01-04T09:33:16;3.73;;;1.40;;
39620;SDS011;25309;48.686;9.170;2023-01-04T09:35:42;3.10;;;1.33;;
39620;SDS011;25309;48.686;9.170;2023-01-04T09:38:09;2.57;;;1.40;;
39620;SDS011;25309;48.686;9.170;2023-01-04T09:40:46;1.90;;;1.00;;
39620;SDS011;25309;48.686;9.170;2023-01-04T09:43:19;3.10;;;1.27;;
39620;SDS011;25309;48.686;9.170;2023-01-04T09:45:51;3.30;;;1.10;;
39620;SDS011;25309;48.686;9.170;2023-01-04T09:48:22;3.33;;;1.03;;
39620;SDS011;25309;48.686;9.170;2023-01-04T09:50:53;2.27;;;1.10;;
39620;SDS011;25309;48.686;9.170;2023-01-04T09:53:25;2.30;;;0.87;;
39620;SDS011;25309;48.686;9.170;2023-01-04T09:55:59;1.67;;;0.80;;
39620;SDS011;25309;48.686;9.170;2023-01-04T09:58:35;3.17;;;1.07;;
39620;SDS011;25309;48.686;9.170;2023-01-04T10:01:09;1.93;;;1.00;;
39620;SDS011;25309;48.686;9.170;2023-01-04T10:03:41;2.33;;;1.03;;
39620;SDS011;25309;48.686;9.170;2023-01-04T10:06:13;1.77;;;0.80;;
39620;SDS011;25309;48.686;9.170;2023-01-04T10:08:40;1.60;;;0.90;;
39620;SDS011;25309;48.686;9.170;2023-01-04T10:11:13;2.60;;;0.80;;
39620;SDS011;25309;48.686;9.170;2023-01-04T10:14:14;1.17;;;0.97;;
39620;SDS011;25309;48.686;9.170;2023-01-04T10:17:03;3.43;;;1.00;;
39620;SDS011;25309;48.686;9.170;2023-01-04T10:19:49;2.60;;;0.80;;
39620;SDS011;25309;48.686;9.170;2023-01-04T10:22:48;2.23;;;1.00;;
39620;SDS011;25309;48.686;9.170;2023-01-04T10:25:26;2.17;;;0.90;;
39620;SDS011;25309;48.686;9.170;2023-01-04T10:28:02;1.67;;;0.80;;
39620;SDS011;25309;48.686;9.170;2023-01-04T10:30:49;2.47;;;0.87;;
39620;SDS011;25309;48.686;9.170;2023-01-04T10:33:25;1.63;;;0.80;;
39620;SDS011;25309;48.686;9.170;2023-01-04T10:35:58;2.40;;;0.90;;
39620;SDS011;25309;48.686;9.170;2023-01-04T10:38:26;1.57;;;0.80;;
39620;SDS011;25309;48.686;9.170;2023-01-04T10:40:55;3.27;;;0.97;;
39620;SDS011;25309;48.686;9.170;2023-01-04T10:43:27;2.27;;;0.87;;
39620;SDS011;25309;48.686;9.170;2023-01-04T10:46:22;0.87;;;0.70;;
39620;SDS011;25309;48.686;9.170;2023-01-04T10:48:56;3.73;;;1.20;;
39620;SDS011;25309;48.686;9.170;2023-01-04T10:51:30;2.20;;;1.00;;
39620;SDS011;25309;48.686;9.170;2023-01-04T10:54:07;2.53;;;0.90;;
39620;SDS011;25309;48.686;9.170;2023-01-04T10:56:42;2.83;;;0.90;;
39620;SDS011;25309;48.686;9.170;2023-01-04T10:59:15;1.97;;;0.80;;
39620;SDS011;25309;48.686;9.170;2023-01-04T11:01:48;1.77;;;0.90;;
39620;SDS011;25309;48.686;9.170;2023-01-04T11:04:22;1.53;;;1.00;;
39620;SDS011;25309;48.686;9.170;2023-01-04T11:06:53;2.33;;;0.90;;
39620;SDS011;25309;48.686;9.170;2023-01-04T11:09:25;1.60;;;1.00;;
39620;SDS011;25309;48.686;9.170;2023-01-04T11:11:58;2.17;;;0.90;;
39620;SDS011;25309;48.686;9.170;2023-01-04T11:14:26;1.60;;;0.83;;
39620;SDS011;25309;48.686;9.170;2023-01-04T11:17:02;2.27;;;0.80;;
39620;SDS011;25309;48.686;9.170;2023-01-04T11:19:32;1.07;;;0.80;;
39620;SDS011;25309;48.686;9.170;2023-01-04T11:22:01;1.90;;;1.00;;
39620;SDS011;25309;48.686;9.170;2023-01-04T11:24:31;2.67;;;0.90;;
39620;SDS011;25309;48.686;9.170;2023-01-04T11:27:04;1.37;;;0.90;;
39620;SDS011;25309;48.686;9.170;2023-01-04T11:29:36;2.23;;;0.80;;
39620;SDS011;25309;48.686;9.170;2023-01-04T11:32:13;1.90;;;1.00;;
39620;SDS011;25309;48.686;9.170;2023-01-04T11:34:48;1.80;;;0.90;;
39620;SDS011;25309;48.686;9.170;2023-01-04T11:37:24;1.63;;;0.83;;
39620;SDS011;25309;48.686;9.170;2023-01-04T11:40:12;2.77;;;1.10;;
39620;SDS011;25309;48.686;9.170;2023-01-04T11:42:47;2.83;;;1.33;;
39620;SDS011;25309;48.686;9.170;2023-01-04T11:45:16;3.07;;;1.53;;
39620;SDS011;25309;48.686;9.170;2023-01-04T11:47:48;2.30;;;0.90;;
39620;SDS011;25309;48.686;9.170;2023-01-04T11:50:38;1.90;;;1.10;;
39620;SDS011;25309;48.686;9.170;2023-01-04T11:53:24;0.90;;;0.70;;
39620;SDS011;25309;48.686;9.170;2023-01-04T11:56:16;2.03;;;1.30;;
39620;SDS011;25309;48.686;9.170;2023-01-04T12:01:28;2.67;;;0.80;;
39620;SDS011;25309;48.686;9.170;2023-01-04T12:03:57;4.20;;;0.97;;
39620;SDS011;25309;48.686;9.170;2023-01-04T12:06:29;2.57;;;1.00;;
39620;SDS011;25309;48.686;9.170;2023-01-04T12:09:00;1.60;;;1.03;;
39620;SDS011;25309;48.686;9.170;2023-01-04T12:11:28;1.90;;;0.90;;
39620;SDS011;25309;48.686;9.170;2023-01-04T12:13:57;1.30;;;0.93;;
39620;SDS011;25309;48.686;9.170;2023-01-04T12:16:27;1.87;;;1.10;;
39620;SDS011;25309;48.686;9.170;2023-01-04T12:19:03;1.10;;;0.90;;
39620;SDS011;25309;48.686;9.170;2023-01-04T12:21:32;2.53;;;0.80;;
39620;SDS011;25309;48.686;9.170;2023-01-04T12:24:00;1.27;;;0.90;;
39620;SDS011;25309;48.686;9.170;2023-01-04T12:26:32;1.77;;;1.03;;
39620;SDS011;25309;48.686;9.170;2023-01-04T12:35:05;1.43;;;0.90;;
39620;SDS011;25309;48.686;9.170;2023-01-04T12:38:11;1.67;;;0.80;;
39620;SDS011;25309;48.686;9.170;2023-01-04T12:40:51;1.30;;;0.87;;
39620;SDS011;25309;48.686;9.170;2023-01-04T12:43:23;2.60;;;1.10;;
39620;SDS011;25309;48.686;9.170;2023-01-04T12:52:40;3.00;;;1.03;;
39620;SDS011;25309;48.686;9.170;2023-01-04T13:02:07;1.37;;;0.80;;
39620;SDS011;25309;48.686;9.170;2023-01-04T13:04:43;2.57;;;0.70;;
39620;SDS011;25309;48.686;9.170;2023-01-04T13:07:12;1.70;;;0.83;;
39620;SDS011;25309;48.686;9.170;2023-01-04T13:09:47;2.70;;;0.93;;
39620;SDS011;25309;48.686;9.170;2023-01-04T13:12:22;1.23;;;0.90;;
39620;SDS011;25309;48.686;9.170;2023-01-04T13:15:14;1.23;;;0.70;;
39620;SDS011;25309;48.686;9.170;2023-01-04T13:17:47;1.53;;;1.00;;
39620;SDS011;25309;48.686;9.170;2023-01-04T13:20:15;1.93;;;1.20;;
39620;SDS011;25309;48.686;9.170;2023-01-04T13:22:47;1.00;;;0.83;;
39620;SDS011;25309;48.686;9.170;2023-01-04T13:25:17;1.73;;;1.00;;
39620;SDS011;25309;48.686;9.170;2023-01-04T13:27:56;1.23;;;1.10;;
39620;SDS011;25309;48.686;9.170;2023-01-04T13:30:29;1.33;;;0.70;;
39620;SDS011;25309;48.686;9.170;2023-01-04T13:32:57;0.87;;;0.70;;
39620;SDS011;25309;48.686;9.170;2023-01-04T13:35:56;1.77;;;1.00;;
39620;SDS011;25309;48.686;9.170;2023-01-04T13:38:26;2.93;;;1.00;;
39620;SDS011;25309;48.686;9.170;2023-01-04T13:40:55;2.10;;;0.90;;
39620;SDS011;25309;48.686;9.170;2023-01-04T13:43:30;2.03;;;0.70;;
39620;SDS011;25309;48.686;9.170;2023-01-04T13:46:11;2.50;;;1.13;;
39620;SDS011;25309;48.686;9.170;2023-01-04T13:48:40;1.70;;;1.00;;
39620;SDS011;25309;48.686;9.170;2023-01-04T13:51:13;2.43;;;1.10;;
39620;SDS011;25309;48.686;9.170;2023-01-04T13:53:50;0.90;;;0.60;;
39620;SDS011;25309;48.686;9.170;2023-01-04T13:56:19;1.70;;;0.70;;
39620;SDS011;25309;48.686;9.170;2023-01-04T13:58:48;1.20;;;0.60;;
39620;SDS011;25309;48.686;9.170;2023-01-04T14:01:18;0.40;;;0.40;;
39620;SDS011;25309;48.686;9.170;2023-01-04T14:03:48;1.70;;;0.80;;
39620;SDS011;25309;48.686;9.170;2023-01-04T14:06:18;0.60;;;0.50;;
39620;SDS011;25309;48.686;9.170;2023-01-04T14:08:52;0.87;;;0.60;;
39620;SDS011;25309;48.686;9.170;2023-01-04T14:11:31;1.77;;;0.97;;
39620;SDS011;25309;48.686;9.170;2023-01-04T14:14:22;2.20;;;1.10;;
39620;SDS011;25309;48.686;9.170;2023-01-04T14:17:03;2.30;;;0.70;;
39620;SDS011;25309;48.686;9.170;2023-01-04T14:19:39;2.33;;;1.20;;
39620;SDS011;25309;48.686;9.170;2023-01-04T14:22:25;1.07;;;0.60;;
39620;SDS011;25309;48.686;9.170;2023-01-04T14:28:25;1.70;;;0.70;;
39620;SDS011;25309;48.686;9.170;2023-01-04T14:34:05;0.60;;;0.50;;
39620;SDS011;25309;48.686;9.170;2023-01-04T14:36:37;3.77;;;1.80;;
39620;SDS011;25309;48.686;9.170;2023-01-04T14:39:09;2.03;;;0.93;;
39620;SDS011;25309;48.686;9.170;2023-01-04T14:41:41;1.00;;;0.70;;
39620;SDS011;25309;48.686;9.170;2023-01-04T14:44:20;1.07;;;0.50;;
39620;SDS011;25309;48.686;9.170;2023-01-04T14:46:49;1.20;;;0.60;;
39620;SDS011;25309;48.686;9.170;2023-01-04T14:49:18;0.50;;;0.50;;
39620;SDS011;25309;48.686;9.170;2023-01-04T14:51:47;1.60;;;0.70;;
39620;SDS011;25309;48.686;9.170;2023-01-04T14:54:17;0.50;;;0.50;;
39620;SDS011;25309;48.686;9.170;2023-01-04T14:56:50;0.63;;;0.40;;
39620;SDS011;25309;48.686;9.170;2023-01-04T14:59:18;0.73;;;0.50;;
39620;SDS011;25309;48.686;9.170;2023-01-04T15:01:45;0.80;;;0.60;;
39620;SDS011;25309;48.686;9.170;2023-01-04T15:04:13;1.17;;;0.60;;
39620;SDS011;25309;48.686;9.170;2023-01-04T15:06:45;1.13;;;0.70;;
39620;SDS011;25309;48.686;9.170;2023-01-04T15:09:16;2.00;;;0.73;;
39620;SDS011;25309;48.686;9.170;2023-01-04T15:11:43;1.27;;;0.60;;
39620;SDS011;25309;48.686;9.170;2023-01-04T15:14:11;1.40;;;0.70;;
39620;SDS011;25309;48.686;9.170;2023-01-04T15:16:38;0.97;;;0.60;;
39620;SDS011;25309;48.686;9.170;2023-01-04T15:19:05;0.97;;;0.50;;
39620;SDS011;25309;48.686;9.170;2023-01-04T15:21:33;1.03;;;0.60;;
39620;SDS011;25309;48.686;9.170;2023-01-04T15:24:06;1.43;;;0.67;;
39620;SDS011;25309;48.686;9.170;2023-01-04T15:26:34;1.17;;;0.60;;
39620;SDS011;25309;48.686;9.170;2023-01-04T15:29:00;1.10;;;0.60;;
39620;SDS011;25309;48.686;9.170;2023-01-04T15:31:28;1.43;;;0.87;;
39620;SDS011;25309;48.686;9.170;2023-01-04T15:34:04;0.93;;;0.80;;
39620;SDS011;25309;48.686;9.170;2023-01-04T15:36:31;1.23;;;0.70;;
39620;SDS011;25309;48.686;9.170;2023-01-04T15:38:59;1.20;;;0.70;;
39620;SDS011;25309;48.686;9.170;2023-01-04T15:41:26;1.07;;;0.93;;
39620;SDS011;25309;48.686;9.170;2023-01-04T15:44:11;1.47;;;1.10;;
39620;SDS011;25309;48.686;9.170;2023-01-04T15:46:38;1.93;;;1.00;;